sensor_id;sensor_type;location;lat;lon;timestamp;P1;durP1;ratioP1;P2;durP2;ratioP2
18726;SDS011;9492;51.888;5.186;2023-06-19T00:01:58;11.33;;;8.90;;
18726;SDS011;9492;51.888;5.186;2023-06-19T00:04:24;8.47;;;7.63;;
18726;SDS011;9492;51.888;5.186;2023-06-19T00:06:51;9.43;;;8.20;;
18726;SDS011;9492;51.888;5.186;2023-06-19T00:09:18;7.83;;;6.93;;
18726;SDS011;9492;51.888;5.186;2023-06-19T00:11:44;7.40;;;6.67;;
18726;SDS011;9492;51.888;5.186;2023-06-19T00:14:10;6.37;;;5.30;;
18726;SDS011;9492;51.888;5.186;2023-06-19T00:16:36;5.97;;;4.77;;
18726;SDS011;9492;51.888;5.186;2023-06-19T00:19:02;5.63;;;4.23;;
18726;SDS011;9492;51.888;5.186;2023-06-19T00:21:28;4.37;;;3.53;;
18726;SDS011;9492;51.888;5.186;2023-06-19T00:23:54;4.73;;;3.90;;
18726;SDS011;9492;51.888;5.186;2023-06-19T00:26:21;3.77;;;3.47;;
18726;SDS011;9492;51.888;5.186;2023-06-19T00:28:48;3.73;;;3.43;;
18726;SDS011;9492;51.888;5.186;2023-06-19T00:31:14;4.07;;;3.67;;
18726;SDS011;9492;51.888;5.186;2023-06-19T00:33:41;3.87;;;3.50;;
18726;SDS011;9492;51.888;5.186;2023-06-19T00:36:10;3.87;;;3.13;;
18726;SDS011;9492;51.888;5.186;2023-06-19T00:38:37;3.43;;;3.13;;
18726;SDS011;9492;51.888;5.186;2023-06-19T00:41:04;3.60;;;3.10;;
18726;SDS011;9492;51.888;5.186;2023-06-19T00:43:30;3.70;;;3.40;;
18726;SDS011;9492;51.888;5.186;2023-06-19T00:45:57;4.00;;;3.63;;
18726;SDS011;9492;51.888;5.186;2023-06-19T00:48:23;3.40;;;3.07;;
18726;SDS011;9492;51.888;5.186;2023-06-19T00:50:49;4.30;;;2.90;;
18726;SDS011;9492;51.888;5.186;2023-06-19T00:53:16;2.80;;;2.60;;
18726;SDS011;9492;51.888;5.186;2023-06-19T00:55:43;4.00;;;3.10;;
18726;SDS011;9492;51.888;5.186;2023-06-19T00:58:10;3.97;;;3.17;;
18726;SDS011;9492;51.888;5.186;2023-06-19T01:00:36;3.20;;;2.70;;
18726;SDS011;9492;51.888;5.186;2023-06-19T01:03:02;2.37;;;2.17;;
18726;SDS011;9492;51.888;5.186;2023-06-19T01:05:28;3.83;;;2.47;;
18726;SDS011;9492;51.888;5.186;2023-06-19T01:10:24;2.23;;;2.03;;
18726;SDS011;9492;51.888;5.186;2023-06-19T01:12:56;2.20;;;2.00;;
18726;SDS011;9492;51.888;5.186;2023-06-19T01:15:22;2.87;;;2.53;;
18726;SDS011;9492;51.888;5.186;2023-06-19T01:17:48;3.43;;;2.30;;
18726;SDS011;9492;51.888;5.186;2023-06-19T01:20:15;2.40;;;2.20;;
18726;SDS011;9492;51.888;5.186;2023-06-19T01:22:41;2.47;;;2.27;;
18726;SDS011;9492;51.888;5.186;2023-06-19T01:25:09;3.83;;;2.23;;
18726;SDS011;9492;51.888;5.186;2023-06-19T01:27:35;2.73;;;2.47;;
18726;SDS011;9492;51.888;5.186;2023-06-19T01:30:02;2.03;;;1.90;;
18726;SDS011;9492;51.888;5.186;2023-06-19T01:35:01;2.90;;;2.13;;
18726;SDS011;9492;51.888;5.186;2023-06-19T01:37:28;2.80;;;1.73;;
18726;SDS011;9492;51.888;5.186;2023-06-19T01:39:56;2.20;;;2.00;;
18726;SDS011;9492;51.888;5.186;2023-06-19T01:42:22;2.40;;;2.13;;
18726;SDS011;9492;51.888;5.186;2023-06-19T01:44:49;2.17;;;1.93;;
18726;SDS011;9492;51.888;5.186;2023-06-19T01:47:15;2.33;;;1.73;;
18726;SDS011;9492;51.888;5.186;2023-06-19T01:49:45;2.33;;;1.80;;
18726;SDS011;9492;51.888;5.186;2023-06-19T01:52:11;3.07;;;2.20;;
18726;SDS011;9492;51.888;5.186;2023-06-19T01:54:38;2.20;;;2.00;;
18726;SDS011;9492;51.888;5.186;2023-06-19T01:57:04;2.70;;;2.17;;
18726;SDS011;9492;51.888;5.186;2023-06-19T01:59:30;4.87;;;2.00;;
18726;SDS011;9492;51.888;5.186;2023-06-19T02:01:56;3.70;;;2.57;;
18726;SDS011;9492;51.888;5.186;2023-06-19T02:04:22;2.90;;;2.30;;
18726;SDS011;9492;51.888;5.186;2023-06-19T02:06:48;2.53;;;2.20;;
18726;SDS011;9492;51.888;5.186;2023-06-19T02:09:14;2.30;;;2.10;;
18726;SDS011;9492;51.888;5.186;2023-06-19T02:11:40;2.83;;;2.57;;
18726;SDS011;9492;51.888;5.186;2023-06-19T02:14:07;4.30;;;2.27;;
18726;SDS011;9492;51.888;5.186;2023-06-19T02:16:33;2.57;;;2.37;;
18726;SDS011;9492;51.888;5.186;2023-06-19T02:18:59;2.43;;;2.23;;
18726;SDS011;9492;51.888;5.186;2023-06-19T02:21:25;2.90;;;2.70;;
18726;SDS011;9492;51.888;5.186;2023-06-19T02:23:53;2.40;;;2.20;;
18726;SDS011;9492;51.888;5.186;2023-06-19T02:26:19;2.40;;;2.03;;
18726;SDS011;9492;51.888;5.186;2023-06-19T02:28:45;3.50;;;3.23;;
18726;SDS011;9492;51.888;5.186;2023-06-19T02:31:12;2.50;;;2.30;;
18726;SDS011;9492;51.888;5.186;2023-06-19T02:33:38;2.63;;;2.40;;
18726;SDS011;9492;51.888;5.186;2023-06-19T02:36:08;3.33;;;2.50;;
18726;SDS011;9492;51.888;5.186;2023-06-19T02:38:34;3.40;;;3.10;;
18726;SDS011;9492;51.888;5.186;2023-06-19T02:41:00;4.00;;;2.63;;
18726;SDS011;9492;51.888;5.186;2023-06-19T02:43:26;3.60;;;2.97;;
18726;SDS011;9492;51.888;5.186;2023-06-19T02:45:52;3.23;;;2.93;;
18726;SDS011;9492;51.888;5.186;2023-06-19T02:48:18;4.17;;;3.03;;
18726;SDS011;9492;51.888;5.186;2023-06-19T02:50:44;3.47;;;2.90;;
18726;SDS011;9492;51.888;5.186;2023-06-19T02:53:10;3.47;;;2.70;;
18726;SDS011;9492;51.888;5.186;2023-06-19T02:55:36;3.23;;;2.80;;
18726;SDS011;9492;51.888;5.186;2023-06-19T02:58:02;3.83;;;2.70;;
18726;SDS011;9492;51.888;5.186;2023-06-19T03:00:28;3.27;;;2.93;;
18726;SDS011;9492;51.888;5.186;2023-06-19T03:02:54;3.97;;;3.30;;
18726;SDS011;9492;51.888;5.186;2023-06-19T03:05:20;3.23;;;2.93;;
18726;SDS011;9492;51.888;5.186;2023-06-19T03:07:46;3.63;;;2.53;;
18726;SDS011;9492;51.888;5.186;2023-06-19T03:10:12;3.33;;;3.03;;
18726;SDS011;9492;51.888;5.186;2023-06-19T03:12:38;3.83;;;3.23;;
18726;SDS011;9492;51.888;5.186;2023-06-19T03:15:04;3.20;;;2.77;;
18726;SDS011;9492;51.888;5.186;2023-06-19T03:17:30;4.77;;;3.50;;
18726;SDS011;9492;51.888;5.186;2023-06-19T03:19:56;5.20;;;3.43;;
18726;SDS011;9492;51.888;5.186;2023-06-19T03:22:22;4.23;;;2.87;;
18726;SDS011;9492;51.888;5.186;2023-06-19T03:24:48;4.60;;;3.70;;
18726;SDS011;9492;51.888;5.186;2023-06-19T03:27:14;3.60;;;3.10;;
18726;SDS011;9492;51.888;5.186;2023-06-19T03:29:40;5.40;;;4.90;;
18726;SDS011;9492;51.888;5.186;2023-06-19T03:32:06;4.33;;;3.97;;
18726;SDS011;9492;51.888;5.186;2023-06-19T03:34:33;6.17;;;4.17;;
18726;SDS011;9492;51.888;5.186;2023-06-19T03:36:59;4.57;;;4.17;;
18726;SDS011;9492;51.888;5.186;2023-06-19T03:39:25;4.93;;;4.27;;
18726;SDS011;9492;51.888;5.186;2023-06-19T03:41:51;5.03;;;4.60;;
18726;SDS011;9492;51.888;5.186;2023-06-19T03:44:17;5.90;;;4.87;;
18726;SDS011;9492;51.888;5.186;2023-06-19T03:46:43;7.00;;;5.20;;
18726;SDS011;9492;51.888;5.186;2023-06-19T03:49:09;7.40;;;4.43;;
18726;SDS011;9492;51.888;5.186;2023-06-19T03:51:35;5.77;;;5.00;;
18726;SDS011;9492;51.888;5.186;2023-06-19T03:54:01;6.70;;;5.23;;
18726;SDS011;9492;51.888;5.186;2023-06-19T03:56:27;5.43;;;4.90;;
18726;SDS011;9492;51.888;5.186;2023-06-19T03:58:53;5.80;;;5.27;;
18726;SDS011;9492;51.888;5.186;2023-06-19T04:01:19;7.27;;;5.93;;
18726;SDS011;9492;51.888;5.186;2023-06-19T04:03:45;7.33;;;6.63;;
18726;SDS011;9492;51.888;5.186;2023-06-19T04:06:11;8.67;;;7.77;;
18726;SDS011;9492;51.888;5.186;2023-06-19T04:08:37;10.70;;;7.87;;
18726;SDS011;9492;51.888;5.186;2023-06-19T04:11:03;9.63;;;8.17;;
18726;SDS011;9492;51.888;5.186;2023-06-19T04:13:29;10.50;;;8.40;;
18726;SDS011;9492;51.888;5.186;2023-06-19T04:15:58;12.23;;;9.83;;
18726;SDS011;9492;51.888;5.186;2023-06-19T04:18:24;11.93;;;10.27;;
18726;SDS011;9492;51.888;5.186;2023-06-19T04:20:52;12.57;;;10.80;;
18726;SDS011;9492;51.888;5.186;2023-06-19T04:23:18;13.07;;;11.77;;
18726;SDS011;9492;51.888;5.186;2023-06-19T04:25:44;12.17;;;10.10;;
18726;SDS011;9492;51.888;5.186;2023-06-19T04:28:10;10.30;;;9.20;;
18726;SDS011;9492;51.888;5.186;2023-06-19T04:30:36;10.83;;;9.70;;
18726;SDS011;9492;51.888;5.186;2023-06-19T04:33:04;10.90;;;9.60;;
18726;SDS011;9492;51.888;5.186;2023-06-19T04:35:31;10.73;;;9.57;;
18726;SDS011;9492;51.888;5.186;2023-06-19T04:37:57;10.90;;;9.90;;
18726;SDS011;9492;51.888;5.186;2023-06-19T04:40:26;10.70;;;9.30;;
18726;SDS011;9492;51.888;5.186;2023-06-19T04:42:52;10.77;;;9.77;;
18726;SDS011;9492;51.888;5.186;2023-06-19T04:45:19;11.63;;;10.43;;
18726;SDS011;9492;51.888;5.186;2023-06-19T04:47:45;10.03;;;9.03;;
18726;SDS011;9492;51.888;5.186;2023-06-19T04:50:11;10.63;;;8.97;;
18726;SDS011;9492;51.888;5.186;2023-06-19T04:52:37;10.03;;;8.90;;
18726;SDS011;9492;51.888;5.186;2023-06-19T04:55:05;11.23;;;8.60;;
18726;SDS011;9492;51.888;5.186;2023-06-19T04:57:34;9.07;;;8.17;;
18726;SDS011;9492;51.888;5.186;2023-06-19T05:00:00;12.47;;;7.37;;
18726;SDS011;9492;51.888;5.186;2023-06-19T05:02:26;8.63;;;6.90;;
18726;SDS011;9492;51.888;5.186;2023-06-19T05:04:52;8.53;;;6.80;;
18726;SDS011;9492;51.888;5.186;2023-06-19T05:07:18;7.60;;;6.83;;
18726;SDS011;9492;51.888;5.186;2023-06-19T05:09:44;8.30;;;7.50;;
18726;SDS011;9492;51.888;5.186;2023-06-19T05:12:10;10.50;;;8.73;;
18726;SDS011;9492;51.888;5.186;2023-06-19T05:14:37;9.53;;;8.47;;
18726;SDS011;9492;51.888;5.186;2023-06-19T05:17:03;9.47;;;8.57;;
18726;SDS011;9492;51.888;5.186;2023-06-19T05:19:29;9.13;;;7.90;;
18726;SDS011;9492;51.888;5.186;2023-06-19T05:21:55;8.93;;;6.97;;
18726;SDS011;9492;51.888;5.186;2023-06-19T05:24:21;8.47;;;6.00;;
18726;SDS011;9492;51.888;5.186;2023-06-19T05:26:47;6.97;;;6.13;;
18726;SDS011;9492;51.888;5.186;2023-06-19T05:29:13;6.27;;;5.33;;
18726;SDS011;9492;51.888;5.186;2023-06-19T05:31:39;5.57;;;5.07;;
18726;SDS011;9492;51.888;5.186;2023-06-19T05:34:05;6.27;;;5.30;;
18726;SDS011;9492;51.888;5.186;2023-06-19T05:36:31;7.93;;;5.70;;
18726;SDS011;9492;51.888;5.186;2023-06-19T05:38:58;5.47;;;4.93;;
18726;SDS011;9492;51.888;5.186;2023-06-19T05:41:24;5.10;;;4.60;;
18726;SDS011;9492;51.888;5.186;2023-06-19T05:43:50;5.33;;;4.43;;
18726;SDS011;9492;51.888;5.186;2023-06-19T05:46:16;3.93;;;3.63;;
18726;SDS011;9492;51.888;5.186;2023-06-19T05:48:42;4.83;;;4.33;;
18726;SDS011;9492;51.888;5.186;2023-06-19T05:51:08;4.80;;;4.00;;
18726;SDS011;9492;51.888;5.186;2023-06-19T05:53:34;5.57;;;4.20;;
18726;SDS011;9492;51.888;5.186;2023-06-19T05:56:00;5.33;;;4.77;;
18726;SDS011;9492;51.888;5.186;2023-06-19T05:58:26;7.03;;;5.17;;
18726;SDS011;9492;51.888;5.186;2023-06-19T06:00:52;7.47;;;6.60;;
18726;SDS011;9492;51.888;5.186;2023-06-19T06:03:22;8.93;;;6.70;;
18726;SDS011;9492;51.888;5.186;2023-06-19T06:05:49;9.27;;;6.60;;
18726;SDS011;9492;51.888;5.186;2023-06-19T06:08:15;7.57;;;6.80;;
18726;SDS011;9492;51.888;5.186;2023-06-19T06:10:41;7.63;;;6.90;;
18726;SDS011;9492;51.888;5.186;2023-06-19T06:13:07;8.00;;;7.20;;
18726;SDS011;9492;51.888;5.186;2023-06-19T06:15:33;8.37;;;7.30;;
18726;SDS011;9492;51.888;5.186;2023-06-19T06:17:59;9.27;;;8.37;;
18726;SDS011;9492;51.888;5.186;2023-06-19T06:20:26;8.87;;;7.57;;
18726;SDS011;9492;51.888;5.186;2023-06-19T06:22:52;11.03;;;8.70;;
18726;SDS011;9492;51.888;5.186;2023-06-19T06:25:19;10.97;;;9.43;;
18726;SDS011;9492;51.888;5.186;2023-06-19T06:27:45;10.97;;;9.87;;
18726;SDS011;9492;51.888;5.186;2023-06-19T06:30:11;10.37;;;9.30;;
18726;SDS011;9492;51.888;5.186;2023-06-19T06:32:37;13.47;;;10.73;;
18726;SDS011;9492;51.888;5.186;2023-06-19T06:35:03;11.20;;;10.03;;
18726;SDS011;9492;51.888;5.186;2023-06-19T06:37:29;13.83;;;10.30;;
18726;SDS011;9492;51.888;5.186;2023-06-19T06:39:55;12.13;;;10.57;;
18726;SDS011;9492;51.888;5.186;2023-06-19T06:42:21;11.90;;;10.50;;
18726;SDS011;9492;51.888;5.186;2023-06-19T06:44:48;12.00;;;10.80;;
18726;SDS011;9492;51.888;5.186;2023-06-19T06:47:14;15.57;;;12.20;;
18726;SDS011;9492;51.888;5.186;2023-06-19T06:49:40;16.00;;;12.47;;
18726;SDS011;9492;51.888;5.186;2023-06-19T06:52:06;14.57;;;13.07;;
18726;SDS011;9492;51.888;5.186;2023-06-19T06:54:32;13.57;;;12.17;;
18726;SDS011;9492;51.888;5.186;2023-06-19T06:56:58;18.60;;;15.63;;
18726;SDS011;9492;51.888;5.186;2023-06-19T06:59:25;15.23;;;13.63;;
18726;SDS011;9492;51.888;5.186;2023-06-19T07:01:54;15.43;;;13.57;;
18726;SDS011;9492;51.888;5.186;2023-06-19T07:04:23;15.77;;;13.97;;
18726;SDS011;9492;51.888;5.186;2023-06-19T07:06:49;14.13;;;12.30;;
18726;SDS011;9492;51.888;5.186;2023-06-19T07:09:16;13.83;;;12.47;;
18726;SDS011;9492;51.888;5.186;2023-06-19T07:11:42;13.63;;;11.93;;
18726;SDS011;9492;51.888;5.186;2023-06-19T07:14:08;14.20;;;11.97;;
18726;SDS011;9492;51.888;5.186;2023-06-19T07:16:34;12.67;;;11.20;;
18726;SDS011;9492;51.888;5.186;2023-06-19T07:19:00;15.43;;;11.80;;
18726;SDS011;9492;51.888;5.186;2023-06-19T07:21:26;15.50;;;12.37;;
18726;SDS011;9492;51.888;5.186;2023-06-19T07:23:53;12.97;;;11.60;;
18726;SDS011;9492;51.888;5.186;2023-06-19T07:26:19;12.37;;;11.07;;
18726;SDS011;9492;51.888;5.186;2023-06-19T07:28:45;13.77;;;12.27;;
18726;SDS011;9492;51.888;5.186;2023-06-19T07:31:11;13.80;;;12.10;;
18726;SDS011;9492;51.888;5.186;2023-06-19T07:33:37;13.47;;;11.97;;
18726;SDS011;9492;51.888;5.186;2023-06-19T07:36:03;15.97;;;13.33;;
18726;SDS011;9492;51.888;5.186;2023-06-19T07:38:29;14.43;;;12.73;;
18726;SDS011;9492;51.888;5.186;2023-06-19T07:40:55;16.60;;;11.83;;
18726;SDS011;9492;51.888;5.186;2023-06-19T07:43:21;13.97;;;12.23;;
18726;SDS011;9492;51.888;5.186;2023-06-19T07:45:47;13.77;;;11.30;;
18726;SDS011;9492;51.888;5.186;2023-06-19T07:48:13;18.43;;;13.83;;
18726;SDS011;9492;51.888;5.186;2023-06-19T07:50:39;15.07;;;12.20;;
18726;SDS011;9492;51.888;5.186;2023-06-19T07:53:05;17.20;;;14.30;;
18726;SDS011;9492;51.888;5.186;2023-06-19T07:55:32;15.07;;;13.47;;
18726;SDS011;9492;51.888;5.186;2023-06-19T07:58:00;17.67;;;15.57;;
18726;SDS011;9492;51.888;5.186;2023-06-19T08:00:26;15.57;;;13.87;;
18726;SDS011;9492;51.888;5.186;2023-06-19T08:02:52;18.60;;;14.70;;
18726;SDS011;9492;51.888;5.186;2023-06-19T08:05:18;15.90;;;14.20;;
18726;SDS011;9492;51.888;5.186;2023-06-19T08:07:44;16.97;;;15.10;;
18726;SDS011;9492;51.888;5.186;2023-06-19T08:10:10;16.57;;;14.90;;
18726;SDS011;9492;51.888;5.186;2023-06-19T08:12:36;16.27;;;14.57;;
18726;SDS011;9492;51.888;5.186;2023-06-19T08:15:02;16.73;;;14.97;;
18726;SDS011;9492;51.888;5.186;2023-06-19T08:17:28;22.47;;;14.70;;
18726;SDS011;9492;51.888;5.186;2023-06-19T08:19:54;16.00;;;14.37;;
18726;SDS011;9492;51.888;5.186;2023-06-19T08:22:22;19.33;;;15.57;;
18726;SDS011;9492;51.888;5.186;2023-06-19T08:24:50;18.53;;;16.63;;
18726;SDS011;9492;51.888;5.186;2023-06-19T08:27:16;18.57;;;16.00;;
18726;SDS011;9492;51.888;5.186;2023-06-19T08:29:42;23.10;;;17.37;;
18726;SDS011;9492;51.888;5.186;2023-06-19T08:32:08;17.30;;;15.40;;
18726;SDS011;9492;51.888;5.186;2023-06-19T08:34:34;17.30;;;15.37;;
18726;SDS011;9492;51.888;5.186;2023-06-19T08:37:01;16.77;;;13.97;;
18726;SDS011;9492;51.888;5.186;2023-06-19T08:39:27;19.17;;;14.63;;
18726;SDS011;9492;51.888;5.186;2023-06-19T08:41:53;22.63;;;16.07;;
18726;SDS011;9492;51.888;5.186;2023-06-19T08:44:19;16.13;;;13.87;;
18726;SDS011;9492;51.888;5.186;2023-06-19T08:46:45;17.00;;;14.13;;
18726;SDS011;9492;51.888;5.186;2023-06-19T08:49:11;16.83;;;13.13;;
18726;SDS011;9492;51.888;5.186;2023-06-19T08:51:39;14.80;;;13.33;;
18726;SDS011;9492;51.888;5.186;2023-06-19T08:54:05;13.73;;;12.30;;
18726;SDS011;9492;51.888;5.186;2023-06-19T08:56:32;15.63;;;12.57;;
18726;SDS011;9492;51.888;5.186;2023-06-19T08:59:17;14.03;;;11.50;;
18726;SDS011;9492;51.888;5.186;2023-06-19T09:01:47;13.83;;;12.30;;
18726;SDS011;9492;51.888;5.186;2023-06-19T09:04:21;13.20;;;11.77;;
18726;SDS011;9492;51.888;5.186;2023-06-19T09:06:48;14.57;;;11.60;;
18726;SDS011;9492;51.888;5.186;2023-06-19T09:09:14;12.70;;;11.40;;
18726;SDS011;9492;51.888;5.186;2023-06-19T09:11:40;14.77;;;11.83;;
18726;SDS011;9492;51.888;5.186;2023-06-19T09:14:12;17.20;;;12.00;;
18726;SDS011;9492;51.888;5.186;2023-06-19T09:16:39;13.77;;;11.87;;
18726;SDS011;9492;51.888;5.186;2023-06-19T09:19:05;15.80;;;13.80;;
18726;SDS011;9492;51.888;5.186;2023-06-19T09:21:31;17.17;;;12.83;;
18726;SDS011;9492;51.888;5.186;2023-06-19T09:24:04;15.83;;;13.23;;
18726;SDS011;9492;51.888;5.186;2023-06-19T09:26:30;13.83;;;12.00;;
18726;SDS011;9492;51.888;5.186;2023-06-19T09:28:56;19.53;;;15.30;;
18726;SDS011;9492;51.888;5.186;2023-06-19T09:31:31;13.30;;;11.90;;
18726;SDS011;9492;51.888;5.186;2023-06-19T09:33:58;16.73;;;12.43;;
18726;SDS011;9492;51.888;5.186;2023-06-19T09:36:24;18.20;;;12.57;;
18726;SDS011;9492;51.888;5.186;2023-06-19T09:38:52;13.03;;;11.63;;
18726;SDS011;9492;51.888;5.186;2023-06-19T09:41:20;13.37;;;10.80;;
18726;SDS011;9492;51.888;5.186;2023-06-19T09:43:47;13.83;;;12.03;;
18726;SDS011;9492;51.888;5.186;2023-06-19T09:46:14;13.07;;;11.30;;
18726;SDS011;9492;51.888;5.186;2023-06-19T09:48:44;13.60;;;11.97;;
18726;SDS011;9492;51.888;5.186;2023-06-19T09:53:46;12.93;;;11.07;;
18726;SDS011;9492;51.888;5.186;2023-06-19T09:56:13;12.63;;;11.30;;
18726;SDS011;9492;51.888;5.186;2023-06-19T09:58:39;14.20;;;12.43;;
18726;SDS011;9492;51.888;5.186;2023-06-19T10:01:06;13.53;;;12.13;;
18726;SDS011;9492;51.888;5.186;2023-06-19T10:03:33;12.90;;;11.60;;
18726;SDS011;9492;51.888;5.186;2023-06-19T10:06:03;14.30;;;11.97;;
18726;SDS011;9492;51.888;5.186;2023-06-19T10:08:39;14.90;;;12.60;;
18726;SDS011;9492;51.888;5.186;2023-06-19T10:11:06;12.90;;;11.50;;
18726;SDS011;9492;51.888;5.186;2023-06-19T10:13:32;11.97;;;10.77;;
18726;SDS011;9492;51.888;5.186;2023-06-19T10:15:59;18.13;;;11.03;;
18726;SDS011;9492;51.888;5.186;2023-06-19T10:18:25;14.17;;;11.33;;
18726;SDS011;9492;51.888;5.186;2023-06-19T10:20:51;14.57;;;11.70;;
18726;SDS011;9492;51.888;5.186;2023-06-19T10:23:19;14.03;;;11.13;;
18726;SDS011;9492;51.888;5.186;2023-06-19T10:25:47;14.17;;;11.47;;
18726;SDS011;9492;51.888;5.186;2023-06-19T10:28:26;13.70;;;11.50;;
18726;SDS011;9492;51.888;5.186;2023-06-19T10:33:22;13.00;;;11.53;;
18726;SDS011;9492;51.888;5.186;2023-06-19T10:35:48;15.70;;;12.63;;
18726;SDS011;9492;51.888;5.186;2023-06-19T10:38:15;12.57;;;10.00;;
18726;SDS011;9492;51.888;5.186;2023-06-19T10:40:41;13.03;;;10.77;;
18726;SDS011;9492;51.888;5.186;2023-06-19T10:43:07;12.53;;;11.23;;
18726;SDS011;9492;51.888;5.186;2023-06-19T10:45:33;13.17;;;11.20;;
18726;SDS011;9492;51.888;5.186;2023-06-19T10:48:02;13.27;;;9.82;;
18726;SDS011;9492;51.888;5.186;2023-06-19T10:50:29;11.50;;;9.70;;
18726;SDS011;9492;51.888;5.186;2023-06-19T10:52:55;11.43;;;10.13;;
18726;SDS011;9492;51.888;5.186;2023-06-19T10:55:21;13.38;;;11.27;;
18726;SDS011;9492;51.888;5.186;2023-06-19T10:57:48;13.60;;;10.38;;
18726;SDS011;9492;51.888;5.186;2023-06-19T11:00:27;12.27;;;10.95;;
18726;SDS011;9492;51.888;5.186;2023-06-19T11:02:54;13.23;;;10.70;;
18726;SDS011;9492;51.888;5.186;2023-06-19T11:05:21;14.10;;;11.27;;
18726;SDS011;9492;51.888;5.186;2023-06-19T11:07:51;12.38;;;11.07;;
18726;SDS011;9492;51.888;5.186;2023-06-19T11:10:21;10.80;;;9.80;;
18726;SDS011;9492;51.888;5.186;2023-06-19T11:12:48;15.10;;;12.73;;
18726;SDS011;9492;51.888;5.186;2023-06-19T11:15:14;12.90;;;11.57;;
18726;SDS011;9492;51.888;5.186;2023-06-19T11:17:40;12.65;;;11.40;;
18726;SDS011;9492;51.888;5.186;2023-06-19T11:20:10;11.93;;;9.75;;
18726;SDS011;9492;51.888;5.186;2023-06-19T11:22:37;13.45;;;12.05;;
18726;SDS011;9492;51.888;5.186;2023-06-19T11:25:03;13.48;;;10.65;;
18726;SDS011;9492;51.888;5.186;2023-06-19T11:27:30;11.73;;;10.52;;
18726;SDS011;9492;51.888;5.186;2023-06-19T11:29:57;11.48;;;9.77;;
18726;SDS011;9492;51.888;5.186;2023-06-19T11:32:31;12.73;;;10.00;;
18726;SDS011;9492;51.888;5.186;2023-06-19T11:35:03;13.73;;;10.65;;
18726;SDS011;9492;51.888;5.186;2023-06-19T11:37:31;10.80;;;9.45;;
18726;SDS011;9492;51.888;5.186;2023-06-19T11:39:59;11.35;;;9.70;;
18726;SDS011;9492;51.888;5.186;2023-06-19T11:42:25;10.27;;;9.27;;
18726;SDS011;9492;51.888;5.186;2023-06-19T11:44:55;10.95;;;9.65;;
18726;SDS011;9492;51.888;5.186;2023-06-19T11:47:21;11.95;;;9.63;;
18726;SDS011;9492;51.888;5.186;2023-06-19T11:49:47;12.13;;;10.00;;
18726;SDS011;9492;51.888;5.186;2023-06-19T11:52:14;9.75;;;8.75;;
18726;SDS011;9492;51.888;5.186;2023-06-19T11:54:40;11.10;;;9.73;;
18726;SDS011;9492;51.888;5.186;2023-06-19T11:57:06;13.50;;;12.07;;
18726;SDS011;9492;51.888;5.186;2023-06-19T11:59:32;12.00;;;10.50;;
18726;SDS011;9492;51.888;5.186;2023-06-19T12:01:58;15.18;;;10.20;;
18726;SDS011;9492;51.888;5.186;2023-06-19T12:04:24;11.27;;;10.10;;
18726;SDS011;9492;51.888;5.186;2023-06-19T12:06:51;10.90;;;9.80;;
18726;SDS011;9492;51.888;5.186;2023-06-19T12:09:18;12.30;;;9.35;;
18726;SDS011;9492;51.888;5.186;2023-06-19T12:11:44;9.82;;;8.55;;
18726;SDS011;9492;51.888;5.186;2023-06-19T12:14:10;10.63;;;9.52;;
18726;SDS011;9492;51.888;5.186;2023-06-19T12:16:36;11.55;;;9.73;;
18726;SDS011;9492;51.888;5.186;2023-06-19T12:19:02;13.05;;;10.70;;
18726;SDS011;9492;51.888;5.186;2023-06-19T12:21:28;10.57;;;9.55;;
18726;SDS011;9492;51.888;5.186;2023-06-19T12:23:54;10.25;;;8.45;;
18726;SDS011;9492;51.888;5.186;2023-06-19T12:26:20;12.10;;;9.75;;
18726;SDS011;9492;51.888;5.186;2023-06-19T12:28:46;10.48;;;8.43;;
18726;SDS011;9492;51.888;5.186;2023-06-19T12:31:12;10.48;;;9.07;;
18726;SDS011;9492;51.888;5.186;2023-06-19T12:33:38;14.82;;;11.23;;
18726;SDS011;9492;51.888;5.186;2023-06-19T12:36:09;12.35;;;10.00;;
18726;SDS011;9492;51.888;5.186;2023-06-19T12:38:37;10.68;;;9.57;;
18726;SDS011;9492;51.888;5.186;2023-06-19T12:41:03;9.45;;;8.50;;
18726;SDS011;9492;51.888;5.186;2023-06-19T12:43:29;10.32;;;8.52;;
18726;SDS011;9492;51.888;5.186;2023-06-19T12:45:56;10.18;;;8.77;;
18726;SDS011;9492;51.888;5.186;2023-06-19T12:48:24;13.23;;;9.90;;
18726;SDS011;9492;51.888;5.186;2023-06-19T12:50:50;12.27;;;10.32;;
18726;SDS011;9492;51.888;5.186;2023-06-19T12:53:16;10.18;;;9.18;;
18726;SDS011;9492;51.888;5.186;2023-06-19T12:55:42;8.32;;;7.22;;
18726;SDS011;9492;51.888;5.186;2023-06-19T12:58:08;10.25;;;8.40;;
18726;SDS011;9492;51.888;5.186;2023-06-19T13:00:34;12.95;;;9.32;;
18726;SDS011;9492;51.888;5.186;2023-06-19T13:03:00;11.70;;;8.95;;
18726;SDS011;9492;51.888;5.186;2023-06-19T13:05:26;9.95;;;8.70;;
18726;SDS011;9492;51.888;5.186;2023-06-19T13:07:52;11.15;;;8.85;;
18726;SDS011;9492;51.888;5.186;2023-06-19T13:10:18;12.20;;;8.77;;
18726;SDS011;9492;51.888;5.186;2023-06-19T13:12:44;15.02;;;10.05;;
18726;SDS011;9492;51.888;5.186;2023-06-19T13:15:11;10.20;;;9.00;;
18726;SDS011;9492;51.888;5.186;2023-06-19T13:17:37;11.10;;;9.95;;
18726;SDS011;9492;51.888;5.186;2023-06-19T13:20:03;20.45;;;10.23;;
18726;SDS011;9492;51.888;5.186;2023-06-19T13:22:30;12.48;;;9.35;;
18726;SDS011;9492;51.888;5.186;2023-06-19T13:24:56;26.58;;;10.55;;
18726;SDS011;9492;51.888;5.186;2023-06-19T13:27:22;16.10;;;8.90;;
18726;SDS011;9492;51.888;5.186;2023-06-19T13:29:48;13.52;;;9.57;;
18726;SDS011;9492;51.888;5.186;2023-06-19T13:32:14;11.93;;;10.70;;
18726;SDS011;9492;51.888;5.186;2023-06-19T13:34:40;9.77;;;8.77;;
18726;SDS011;9492;51.888;5.186;2023-06-19T13:37:06;8.93;;;8.02;;
18726;SDS011;9492;51.888;5.186;2023-06-19T13:39:32;9.68;;;7.80;;
18726;SDS011;9492;51.888;5.186;2023-06-19T13:41:58;9.23;;;8.30;;
18726;SDS011;9492;51.888;5.186;2023-06-19T13:44:26;8.18;;;7.13;;
18726;SDS011;9492;51.888;5.186;2023-06-19T13:46:52;9.90;;;7.60;;
18726;SDS011;9492;51.888;5.186;2023-06-19T13:49:19;11.82;;;7.40;;
18726;SDS011;9492;51.888;5.186;2023-06-19T13:51:45;8.25;;;6.70;;
18726;SDS011;9492;51.888;5.186;2023-06-19T13:54:11;11.32;;;6.53;;
18726;SDS011;9492;51.888;5.186;2023-06-19T13:56:38;9.40;;;6.85;;
18726;SDS011;9492;51.888;5.186;2023-06-19T13:59:04;9.23;;;7.15;;
18726;SDS011;9492;51.888;5.186;2023-06-19T14:01:30;11.30;;;6.63;;
18726;SDS011;9492;51.888;5.186;2023-06-19T14:03:57;9.20;;;7.60;;
18726;SDS011;9492;51.888;5.186;2023-06-19T14:06:26;7.93;;;7.13;;
18726;SDS011;9492;51.888;5.186;2023-06-19T14:08:52;7.72;;;6.88;;
18726;SDS011;9492;51.888;5.186;2023-06-19T14:11:18;8.45;;;7.65;;
18726;SDS011;9492;51.888;5.186;2023-06-19T14:13:44;7.35;;;6.65;;
18726;SDS011;9492;51.888;5.186;2023-06-19T14:16:10;7.07;;;6.38;;
18726;SDS011;9492;51.888;5.186;2023-06-19T14:18:36;7.47;;;6.60;;
18726;SDS011;9492;51.888;5.186;2023-06-19T14:21:02;7.88;;;6.07;;
18726;SDS011;9492;51.888;5.186;2023-06-19T14:23:28;9.63;;;6.43;;
18726;SDS011;9492;51.888;5.186;2023-06-19T14:25:54;7.13;;;6.35;;
18726;SDS011;9492;51.888;5.186;2023-06-19T14:28:20;9.65;;;6.80;;
18726;SDS011;9492;51.888;5.186;2023-06-19T14:30:46;8.57;;;6.00;;
18726;SDS011;9492;51.888;5.186;2023-06-19T14:33:12;7.15;;;5.97;;
18726;SDS011;9492;51.888;5.186;2023-06-19T14:35:42;6.65;;;5.85;;
18726;SDS011;9492;51.888;5.186;2023-06-19T14:38:11;7.57;;;6.65;;
18726;SDS011;9492;51.888;5.186;2023-06-19T14:40:37;8.05;;;5.90;;
18726;SDS011;9492;51.888;5.186;2023-06-19T14:43:03;7.20;;;6.07;;
18726;SDS011;9492;51.888;5.186;2023-06-19T14:45:30;7.57;;;5.90;;
18726;SDS011;9492;51.888;5.186;2023-06-19T14:47:56;7.35;;;5.80;;
18726;SDS011;9492;51.888;5.186;2023-06-19T14:50:22;6.13;;;5.50;;
18726;SDS011;9492;51.888;5.186;2023-06-19T14:52:48;7.85;;;5.30;;
18726;SDS011;9492;51.888;5.186;2023-06-19T14:55:14;7.15;;;5.95;;